EFOU

Oulu Airport

Oulu / Oulunsalo, Finland
METAR EFOU 161020Z AUTO 12004KT 9999 -SN FEW003/// BKN065/// OVC077/// M06/M06 Q1001
Observed Flight Rules
Dec-16 @ 10:20 UTC (49 minutes ago) Visual Flight Rules
Wind Visibility Clouds Conditions
120° at 4 knots 10,000+ meters
  • Few at 300' AGL
  • Broken at 6,500' AGL
  • Overcast at 7,700' AGL
  • Light Snow
Temperatures Readings
Current -6°C / 21°F
Dewpoint -6°C / 21°F
Humidity 100%
Altimeter 29.56" Hg
Pressure 1001 hPa
Elevation 15
METAR EFOU 161020Z AUTO 12004KT 9999 -SN FEW003/// BKN065/// OVC077/// M06/M06 Q1001
Observed Flight Rules
Dec-16 @ 10:20 UTC
(49 minutes ago)
VFR
Wind Visibility
120° at 4 knots 10,000+ meters
Clouds
  • Few at 300' AGL
  • Broken at 6,500' AGL
  • Overcast at 7,700' AGL
Conditions
  • Light Snow
Temperature Dewpoint
-6°C / 21°F -6°C / 21°F
Humidity Altimeter Pressure
100% 29.56" Hg 1001 hPa